Time;durP1;ratioP1;P1;durP2;ratioP2;P2;SDS_P1;SDS_P2;PMS_P1;PMS_P2;Temp;Humidity;BMP_temperature;BMP_pressure;BME280_temperature;BME280_humidity;BME280_pressure;Samples;Min_cycle;Max_cycle;Signal;HPM_P1;HPM_P2
2023/07/10 00:02:19;;;;;;;7.67;6.97;;;;;;;23.01;44.21;101259.09;4917280;29;20498;-67
2023/07/10 00:04:49;;;;;;;8.67;7.37;;;;;;;22.90;44.35;101274.81;4913817;29;20508;-69
2023/07/10 00:07:27;;;;;;;8.70;5.90;;;;;;;22.85;44.17;101272.03;4902870;29;20977;-69
2023/07/10 00:09:58;;;;;;;7.60;7.00;;;;;;;22.82;44.54;101267.06;4912974;29;20418;-68
2023/07/10 00:12:29;;;;;;;8.30;7.10;;;;;;;22.77;44.40;101269.84;4917000;29;20433;-68
2023/07/10 00:14:58;;;;;;;7.33;6.27;;;;;;;22.80;44.24;101263.75;4935966;23;20497;-87
2023/07/10 00:17:27;;;;;;;6.40;5.80;;;;;;;;;;4941091;29;20404;-86
2023/07/10 00:19:59;;;;;;;7.93;7.23;;;;;;;22.87;44.23;101264.31;4931497;29;20452;-86
2023/07/10 00:22:31;;;;;;;7.30;6.40;;;;;;;22.85;44.62;101269.28;4951709;29;20439;-88
2023/07/10 00:25:00;;;;;;;8.00;7.20;;;;;;;22.96;44.24;101273.72;4944738;29;20501;-86
2023/07/10 00:27:29;;;;;;;6.80;6.20;;;;;;;22.93;44.75;101276.19;4936535;29;20444;-86
2023/07/10 00:29:58;;;;;;;8.10;6.43;;;;;;;22.80;44.53;101274.00;4924736;29;20529;-85
2023/07/10 00:32:27;;;;;;;7.50;6.67;;;;;;;22.74;44.56;101272.31;4914674;29;20980;-85
2023/07/10 00:34:58;;;;;;;9.80;7.70;;;;;;;22.68;44.90;101270.63;4939553;28;20468;-85
2023/07/10 00:37:27;;;;;;;6.90;6.20;;;;;;;22.66;44.86;101273.63;4933799;28;20456;-89
2023/07/10 00:39:56;;;;;;;6.57;5.80;;;;;;;22.61;44.97;101281.91;4912304;29;20850;-88
2023/07/10 00:42:27;;;;;;;6.13;5.57;;;;;;;22.64;44.64;101286.06;4913095;29;20441;-89
2023/07/10 00:45:01;;;;;;;7.97;5.73;;;;;;;22.54;45.68;101290.47;4907144;29;20509;-86
2023/07/10 00:47:39;;;;;;;6.97;6.00;;;;;;;22.49;45.16;101289.59;4918885;29;20467;-86
2023/07/10 00:50:17;;;;;;;10.30;6.10;;;;;;;22.58;45.97;101298.19;4937177;29;20447;-86
2023/07/10 00:52:49;;;;;;;9.90;6.90;;;;;;;22.98;44.97;101314.00;4938075;28;20521;-85
2023/07/10 00:55:24;;;;;;;10.77;6.20;;;;;;;22.92;45.00;101327.81;4938774;28;20449;-86
2023/07/10 00:58:06;;;;;;;9.57;6.53;;;;;;;22.83;44.49;101334.13;4938572;29;20447;-86
2023/07/10 01:01:05;;;;;;;6.53;6.03;;;;;;;22.76;44.95;101337.16;4934177;28;20427;-88
2023/07/10 01:03:35;;;;;;;6.60;5.60;;;;;;;22.76;44.53;101348.19;4920563;29;20420;-86
2023/07/10 01:06:10;;;;;;;6.83;5.93;;;;;;;22.85;44.48;101381.63;4938430;28;20488;-86
2023/07/10 01:08:43;;;;;;;7.37;6.23;;;;;;;22.80;44.76;101382.41;4917553;29;20455;-87
2023/07/10 01:11:12;;;;;;;7.77;7.07;;;;;;;22.72;44.87;101352.59;4905602;29;20526;-86
2023/07/10 01:13:45;;;;;;;8.20;7.50;;;;;;;22.70;45.39;101337.38;4926518;29;20480;-86
2023/07/10 01:16:14;;;;;;;8.70;7.80;;;;;;;22.91;45.25;101358.41;4927225;29;20440;-85
2023/07/10 01:18:44;;;;;;;8.23;6.70;;;;;;;22.82;45.37;101360.91;4930633;29;20453;-86
2023/07/10 01:21:25;;;;;;;9.70;6.50;;;;;;;22.66;45.65;101359.16;4927456;29;20430;-86
2023/07/10 01:23:55;;;;;;;9.87;7.37;;;;;;;22.61;45.71;101339.81;4898715;29;20431;-88
2023/07/10 01:26:25;;;;;;;8.13;7.33;;;;;;;22.70;45.51;101329.97;4912824;29;20458;-87
2023/07/10 01:28:57;;;;;;;7.90;7.20;;;;;;;22.74;45.02;101325.56;4927628;29;20438;-88
2023/07/10 01:31:28;;;;;;;8.60;7.77;;;;;;;22.67;45.08;101324.94;4922158;29;20433;-89
2023/07/10 01:34:03;;;;;;;8.63;7.83;;;;;;;22.72;45.46;101330.53;4924695;29;20438;-89
2023/07/10 01:36:38;;;;;;;7.37;6.77;;;;;;;22.61;45.51;101314.19;4931642;29;20810;-88
2023/07/10 01:39:28;;;;;;;9.80;9.00;;;;;;;22.67;45.66;101302.88;4927407;29;20440;-86
2023/07/10 01:41:57;;;;;;;8.43;7.63;;;;;;;22.65;45.70;101291.31;4922704;29;20416;-86
2023/07/10 01:44:28;;;;;;;8.50;7.70;;;;;;;22.73;45.21;101289.97;4925092;29;20465;-88
2023/07/10 01:46:59;;;;;;;8.30;7.60;;;;;;;22.68;45.66;101288.00;4920887;29;20463;-87
2023/07/10 01:49:30;;;;;;;8.70;7.80;;;;;;;22.54;46.12;101284.94;4936479;29;20425;-85
2023/07/10 01:52:03;;;;;;;9.00;8.10;;;;;;;22.56;46.65;101283.84;4927323;29;20500;-87
2023/07/10 01:54:32;;;;;;;9.73;8.73;;;;;;;22.50;46.66;101271.97;4921358;29;20478;-87
2023/07/10 01:57:02;;;;;;;9.53;8.70;;;;;;;22.50;46.19;101274.72;4931701;29;20438;-85
2023/07/10 01:59:31;;;;;;;9.07;8.27;;;;;;;22.58;46.41;101271.44;4921790;29;20921;-88
2023/07/10 02:02:01;;;;;;;12.17;7.90;;;;;;;22.48;46.97;101260.38;4927567;29;20523;-87
2023/07/10 02:04:31;;;;;;;11.30;10.30;;;;;;;22.46;47.47;101254.31;4909120;29;20469;-88
2023/07/10 02:07:05;;;;;;;12.20;9.73;;;;;;;22.31;48.03;101246.00;4912957;29;20469;-87
2023/07/10 02:09:34;;;;;;;8.70;7.90;;;;;;;22.27;47.74;101242.94;4923100;29;20433;-86
2023/07/10 02:12:04;;;;;;;9.27;8.27;;;;;;;22.32;47.99;101253.16;4927525;29;20433;-87
2023/07/10 02:14:33;;;;;;;8.23;7.43;;;;;;;22.38;48.07;101249.31;4922385;29;20511;-86
2023/07/10 02:17:02;;;;;;;9.33;8.53;;;;;;;22.31;48.26;101246.00;4928886;29;20441;-87
2023/07/10 02:19:31;;;;;;;9.60;8.67;;;;;;;22.10;49.12;101240.41;4919432;29;20449;-86
2023/07/10 02:22:00;;;;;;;12.20;8.40;;;;;;;21.97;49.66;101237.34;4932062;29;20477;-87
2023/07/10 02:24:33;;;;;;;11.20;7.90;;;;;;;21.86;50.42;101230.09;4930324;29;20544;-87
2023/07/10 02:27:02;;;;;;;10.30;8.20;;;;;;;21.77;50.96;101217.94;4929728;29;20469;-86
2023/07/10 02:29:32;;;;;;;8.90;8.00;;;;;;;21.65;51.34;101215.38;4934045;29;20462;-86
2023/07/10 02:32:02;;;;;;;10.00;9.10;;;;;;;21.64;51.91;101214.53;4933754;29;20408;-89
2023/07/10 02:34:32;;;;;;;10.00;7.90;;;;;;;21.64;52.03;101216.47;4927981;29;20900;-87
2023/07/10 02:37:01;;;;;;;9.17;8.37;;;;;;;21.57;52.57;101211.22;4929806;29;20893;-86
2023/07/10 02:39:32;;;;;;;8.97;8.07;;;;;;;21.56;52.90;101208.72;4937958;28;20488;-85
2023/07/10 02:42:01;;;;;;;9.80;8.60;;;;;;;21.52;53.59;101210.38;4938531;29;20457;-87
2023/07/10 02:44:30;;;;;;;8.40;7.60;;;;;;;21.43;54.04;101206.47;4919622;29;20523;-86
2023/07/10 02:46:59;;;;;;;8.10;7.30;;;;;;;21.42;54.23;101197.38;4916205;29;20497;-86
2023/07/10 02:49:28;;;;;;;9.50;8.50;;;;;;;21.34;54.71;101191.53;4918936;29;20431;-86
2023/07/10 02:51:58;;;;;;;8.53;7.73;;;;;;;21.35;54.94;101184.94;4936051;29;20430;-84
2023/07/10 02:54:27;;;;;;;8.70;7.00;;;;;;;21.24;55.30;101168.38;4918396;29;20441;-86
2023/07/10 02:56:58;;;;;;;9.93;7.83;;;;;;;21.19;55.46;101176.59;4913404;29;20448;-85
2023/07/10 02:59:28;;;;;;;8.03;7.20;;;;;;;21.13;55.49;101161.13;4925563;29;20436;-87
2023/07/10 03:01:59;;;;;;;8.97;7.87;;;;;;;21.17;55.71;101151.25;4919468;29;20444;-87
2023/07/10 03:04:28;;;;;;;8.07;6.77;;;;;;;21.29;55.28;101152.97;4918640;29;20450;-87
2023/07/10 03:06:58;;;;;;;8.27;7.47;;;;;;;21.23;55.45;101136.44;4929381;29;20556;-87
2023/07/10 03:09:29;;;;;;;8.83;7.90;;;;;;;21.22;56.04;101132.03;4927571;29;20544;-87
2023/07/10 03:12:02;;;;;;;10.00;7.43;;;;;;;21.10;56.39;101131.38;4921411;29;20470;-86
2023/07/10 03:14:31;;;;;;;9.30;8.20;;;;;;;21.14;56.00;101129.78;4929198;29;20468;-87
2023/07/10 03:17:00;;;;;;;12.47;8.07;;;;;;;21.07;56.59;101123.63;4923962;29;20408;-86
2023/07/10 03:19:32;;;;;;;10.23;9.23;;;;;;;21.05;56.49;101120.34;4929293;29;20441;-86
2023/07/10 03:22:01;;;;;;;8.53;7.67;;;;;;;21.10;56.62;101117.63;4912567;29;20794;-87
2023/07/10 03:24:31;;;;;;;10.20;8.27;;;;;;;21.05;56.81;101106.59;4929451;29;20453;-87
2023/07/10 03:27:01;;;;;;;8.57;7.73;;;;;;;21.06;56.88;101110.13;4930575;29;20444;-85
2023/07/10 03:29:30;;;;;;;9.00;8.20;;;;;;;21.18;56.57;101100.63;4928833;29;20431;-88
2023/07/10 03:32:00;;;;;;;8.93;8.13;;;;;;;21.12;56.78;101103.56;4928872;29;20431;-86
2023/07/10 03:34:29;;;;;;;15.80;7.97;;;;;;;21.10;57.16;101105.78;4931596;29;20666;-87
2023/07/10 03:36:58;;;;;;;8.70;7.70;;;;;;;21.13;56.88;101110.75;4934807;29;20430;-85
2023/07/10 03:39:27;;;;;;;8.60;7.73;;;;;;;21.18;56.88;101117.13;4924747;29;20460;-86
2023/07/10 03:41:56;;;;;;;8.47;7.67;;;;;;;21.14;56.89;101113.28;4933414;29;20452;-87
2023/07/10 03:44:27;;;;;;;8.60;7.27;;;;;;;21.23;56.54;101100.66;4929644;29;20471;-88
2023/07/10 03:46:57;;;;;;;8.17;7.47;;;;;;;21.16;56.80;101102.81;4936916;29;20507;-86
2023/07/10 03:49:27;;;;;;;8.60;7.80;;;;;;;21.30;56.21;101099.59;4939162;29;20438;-87
2023/07/10 03:51:56;;;;;;;9.87;7.53;;;;;;;21.53;56.01;101116.47;4946690;29;20407;-85
2023/07/10 03:54:25;;;;;;;9.73;8.73;;;;;;;21.39;55.96;101114.50;4937972;29;20494;-86
2023/07/10 03:56:55;;;;;;;10.37;8.40;;;;;;;21.34;56.33;101120.81;4920647;29;20540;-86
2023/07/10 03:59:26;;;;;;;9.73;8.20;;;;;;;21.33;56.59;101124.66;4917768;29;20448;-86
2023/07/10 04:01:56;;;;;;;9.07;8.17;;;;;;;21.41;55.64;101117.78;4926595;28;20466;-87
2023/07/10 04:04:26;;;;;;;10.20;9.13;;;;;;;21.47;55.89;101113.97;4930877;29;20486;-87
2023/07/10 04:06:56;;;;;;;11.67;8.73;;;;;;;21.58;55.29;101107.41;4897403;29;20555;-86
2023/07/10 04:09:26;;;;;;;9.33;8.30;;;;;;;21.59;55.37;101103.56;4918775;29;20452;-86
2023/07/10 04:11:56;;;;;;;12.60;8.50;;;;;;;21.76;54.45;101095.06;4920457;29;20413;-87
2023/07/10 04:14:27;;;;;;;10.00;9.00;;;;;;;21.81;54.40;101095.06;4914796;29;20449;-87
2023/07/10 04:16:57;;;;;;;8.80;7.90;;;;;;;21.86;53.84;101093.16;4927165;29;20536;-86
2023/07/10 04:19:26;;;;;;;9.43;8.47;;;;;;;21.90;53.63;101097.03;4920749;29;20441;-87
2023/07/10 04:21:55;;;;;;;9.67;8.03;;;;;;;21.94;53.77;101100.91;4921246;29;20412;-86
2023/07/10 04:24:26;;;;;;;8.60;7.80;;;;;;;22.05;52.67;101086.06;4923460;29;20507;-86
2023/07/10 04:26:55;;;;;;;17.50;9.10;;;;;;;22.22;52.18;101085.00;4911924;29;20471;-87
2023/07/10 04:29:25;;;;;;;8.33;7.53;;;;;;;22.35;51.47;101084.44;4922377;29;20443;-87
2023/07/10 04:31:56;;;;;;;9.00;8.20;;;;;;;22.48;51.27;101072.84;4927653;29;20416;-86
2023/07/10 04:34:25;;;;;;;11.73;8.03;;;;;;;22.52;50.57;101068.44;4925084;29;20428;-86
2023/07/10 04:36:54;;;;;;;9.27;8.07;;;;;;;22.49;50.75;101080.84;4905056;29;20568;-88
2023/07/10 04:39:23;;;;;;;12.03;8.40;;;;;;;22.54;50.24;101077.25;4907561;29;20810;-87
2023/07/10 04:41:54;;;;;;;10.47;9.67;;;;;;;22.89;49.12;101077.25;4923672;29;20432;-86
2023/07/10 04:44:24;;;;;;;10.57;7.53;;;;;;;23.07;49.70;101081.31;4925571;29;20445;-86
2023/07/10 04:46:55;;;;;;;7.47;6.73;;;;;;;23.27;48.65;101066.63;4939800;29;20439;-87
2023/07/10 04:49:24;;;;;;;12.10;7.20;;;;;;;23.29;48.02;101069.91;4928020;29;20420;-88
2023/07/10 04:51:53;;;;;;;8.27;7.47;;;;;;;23.52;47.79;101074.00;4916705;29;20417;-88
2023/07/10 04:54:23;;;;;;;8.90;8.00;;;;;;;23.56;47.22;101073.16;4918106;29;20412;-89
2023/07/10 04:56:52;;;;;;;9.40;8.40;;;;;;;23.73;47.67;101081.06;4914923;29;20408;-85
2023/07/10 04:59:21;;;;;;;10.43;9.33;;;;;;;24.17;46.75;101083.84;4923814;29;20410;-86
2023/07/10 05:01:51;;;;;;;13.20;7.77;;;;;;;25.11;44.92;101093.50;4933983;29;20875;-87
2023/07/10 05:04:22;;;;;;;9.97;8.80;;;;;;;26.23;41.73;101109.53;4921944;29;20408;-85
2023/07/10 05:06:57;;;;;;;8.00;7.30;;;;;;;26.61;41.56;101121.38;4915180;29;20453;-85
2023/07/10 05:09:27;;;;;;;8.27;7.37;;;;;;;26.26;42.61;101150.53;4919258;29;20429;-88
2023/07/10 05:11:58;;;;;;;9.23;8.30;;;;;;;25.45;44.18;101155.16;4920613;29;20419;-87
2023/07/10 05:14:30;;;;;;;8.80;7.90;;;;;;;24.80;44.53;101151.09;4914492;29;20489;-86
2023/07/10 05:17:00;;;;;;;14.27;12.77;;;;;;;24.34;47.12;101150.66;4920030;29;20942;-86
2023/07/10 05:19:32;;;;;;;11.73;10.40;;;;;;;23.88;46.61;101149.22;4920150;29;20465;-86
2023/07/10 05:22:02;;;;;;;9.03;8.13;;;;;;;23.84;48.99;101162.81;4920723;29;20456;-87
2023/07/10 05:24:31;;;;;;;12.20;11.10;;;;;;;23.80;49.92;101184.66;4933064;29;20854;-87
2023/07/10 05:27:00;;;;;;;11.30;9.53;;;;;;;23.62;50.58;101210.16;4936948;29;20416;-87
2023/07/10 05:29:29;;;;;;;28.97;26.03;;;;;;;23.23;50.96;101275.38;4935297;29;20484;-85
2023/07/10 05:31:58;;;;;;;9.00;8.20;;;;;;;22.94;50.63;101303.53;4924053;29;20436;-87
2023/07/10 05:34:29;;;;;;;8.90;7.50;;;;;;;22.82;51.67;101272.59;4929459;29;20512;-84
2023/07/10 05:36:59;;;;;;;9.70;8.57;;;;;;;22.75;51.78;101273.97;4923653;29;20509;-85
2023/07/10 05:39:30;;;;;;;16.60;9.07;;;;;;;22.83;52.24;101301.84;4904646;29;20460;-86
2023/07/10 05:42:02;;;;;;;12.50;8.70;;;;;;;22.64;52.79;101322.75;4920359;29;20453;-83
2023/07/10 05:44:31;;;;;;;8.83;7.87;;;;;;;22.60;54.53;101304.25;4937067;29;20436;-86
2023/07/10 05:47:00;;;;;;;13.67;11.20;;;;;;;22.48;54.05;101321.88;4935387;29;20432;-86
2023/07/10 05:49:32;;;;;;;10.97;9.97;;;;;;;22.25;54.41;101292.03;4920321;29;20412;-85
2023/07/10 05:52:01;;;;;;;9.83;8.90;;;;;;;22.18;54.83;101290.59;4920388;29;20499;-84
2023/07/10 05:54:30;;;;;;;8.93;7.80;;;;;;;22.23;58.47;101301.63;4930366;29;20490;-86
2023/07/10 05:57:00;;;;;;;18.83;9.30;;;;;;;22.21;57.62;101288.16;4930870;29;20448;-88
2023/07/10 05:59:30;;;;;;;13.30;10.90;;;;;;;22.12;63.67;101278.75;4921365;29;20427;-84
2023/07/10 06:01:59;;;;;;;14.80;11.13;;;;;;;21.95;60.38;101270.66;4922711;29;20444;-87
2023/07/10 06:04:29;;;;;;;15.57;9.77;;;;;;;21.81;63.20;101255.69;4927534;29;20495;-85
2023/07/10 06:06:59;;;;;;;12.17;10.50;;;;;;;21.64;66.76;101247.59;4920953;29;20404;-84
2023/07/10 06:09:28;;;;;;;11.97;10.73;;;;;;;21.23;69.35;101221.75;4921041;29;20534;-86
2023/07/10 06:11:58;;;;;;;11.73;10.63;;;;;;;20.75;73.38;101202.63;4916781;29;20457;-83
2023/07/10 06:14:27;;;;;;;18.07;9.60;;;;;;;20.32;77.65;101168.72;4916812;29;20524;-83
2023/07/10 06:17:00;;;;;;;15.03;11.17;;;;;;;19.98;80.95;101158.97;4903547;29;20420;-81
2023/07/10 06:19:39;;;;;;;11.40;10.27;;;;;;;19.74;82.01;101132.88;4919652;29;20432;-82
2023/07/10 06:22:16;;;;;;;12.70;10.13;;;;;;;19.59;82.18;101139.03;4919585;29;20497;-81
2023/07/10 06:24:45;;;;;;;12.53;9.77;;;;;;;19.68;82.06;101142.13;4930897;29;20437;-83
2023/07/10 06:27:14;;;;;;;10.50;9.50;;;;;;;19.82;81.29;101149.72;4935307;29;20408;-83
2023/07/10 06:29:43;;;;;;;14.00;10.47;;;;;;;20.04;80.94;101157.94;4932292;29;20452;-82
2023/07/10 06:32:12;;;;;;;12.40;10.53;;;;;;;20.27;81.28;101143.91;4916765;29;20507;-83
2023/07/10 06:34:43;;;;;;;16.97;11.27;;;;;;;20.47;79.53;101134.22;4916455;29;20444;-82
2023/07/10 06:37:12;;;;;;;10.90;9.77;;;;;;;20.59;80.25;101132.09;4918141;29;20427;-79
2023/07/10 06:39:41;;;;;;;15.00;9.27;;;;;;;20.67;77.66;101145.38;4922444;29;20441;-81
2023/07/10 06:42:10;;;;;;;13.97;12.50;;;;;;;20.83;76.66;101144.38;4912639;29;20858;-81
2023/07/10 06:44:46;;;;;;;12.13;9.87;;;;;;;21.10;75.34;101145.13;4893380;29;20451;-81
2023/07/10 06:47:15;;;;;;;12.03;10.83;;;;;;;21.28;73.66;101149.41;4919719;29;20416;-83
2023/07/10 06:49:46;;;;;;;12.63;11.33;;;;;;;21.50;73.65;101161.06;4919805;29;20479;-84
2023/07/10 06:52:16;;;;;;;13.93;11.70;;;;;;;21.62;72.84;101152.59;4918293;29;20409;-82
2023/07/10 06:54:45;;;;;;;16.53;11.87;;;;;;;21.66;73.73;101149.03;4905971;29;20444;-81
2023/07/10 06:57:14;;;;;;;11.43;10.23;;;;;;;21.83;72.83;101136.97;4926136;29;20822;-81
2023/07/10 06:59:43;;;;;;;13.47;10.20;;;;;;;21.89;70.66;101133.94;4918187;29;20541;-81
2023/07/10 07:02:13;;;;;;;13.63;11.00;;;;;;;21.86;71.04;101142.75;4922916;29;20440;-82
2023/07/10 07:04:44;;;;;;;11.97;10.77;;;;;;;22.05;70.26;101145.88;4922921;29;20432;-81
2023/07/10 07:07:13;;;;;;;14.60;10.90;;;;;;;22.10;69.66;101138.44;4923211;29;20441;-82
2023/07/10 07:09:43;;;;;;;13.13;10.17;;;;;;;22.33;67.35;101133.50;4922485;29;20480;-82
2023/07/10 07:12:12;;;;;;;10.80;9.70;;;;;;;22.56;67.21;101127.44;4927055;29;20416;-84
2023/07/10 07:14:42;;;;;;;10.87;9.77;;;;;;;22.75;65.99;101125.00;4910345;29;20488;-85
2023/07/10 07:17:12;;;;;;;12.73;9.70;;;;;;;22.77;66.72;101120.00;4931620;29;20995;-86
2023/07/10 07:19:42;;;;;;;14.53;9.70;;;;;;;22.98;65.09;101120.81;4936659;29;20437;-85
2023/07/10 07:22:13;;;;;;;15.00;11.23;;;;;;;23.00;65.22;101124.09;4939065;28;20437;-89
2023/07/10 07:24:42;;;;;;;14.30;10.80;;;;;;;22.91;63.91;101115.56;4935370;29;20816;-85
2023/07/10 07:27:11;;;;;;;11.97;10.67;;;;;;;22.94;64.12;101115.88;4925080;29;20454;-84
2023/07/10 07:29:40;;;;;;;10.83;9.70;;;;;;;22.99;61.90;101116.97;4910799;29;20636;-86
2023/07/10 07:32:11;;;;;;;11.53;10.30;;;;;;;22.93;63.35;101118.91;4931759;29;20412;-85
2023/07/10 07:34:40;;;;;;;11.80;10.60;;;;;;;22.91;63.96;101113.66;4927309;29;20468;-86
2023/07/10 07:37:09;;;;;;;12.90;10.27;;;;;;;23.08;64.54;101110.59;4938943;28;20449;-86
2023/07/10 07:39:40;;;;;;;13.67;11.17;;;;;;;23.72;62.93;101104.31;4942287;29;20441;-85
2023/07/10 07:42:10;;;;;;;12.37;11.10;;;;;;;24.09;62.00;101098.25;4929170;29;20448;-85
2023/07/10 07:44:40;;;;;;;12.20;10.93;;;;;;;24.41;60.89;101095.00;4934842;29;20439;-86
2023/07/10 07:47:10;;;;;;;12.27;11.00;;;;;;;24.40;58.97;101093.38;4947155;29;20436;-86
2023/07/10 07:49:39;;;;;;;16.73;12.30;;;;;;;24.33;59.46;101087.31;4925765;29;20483;-87
2023/07/10 07:52:08;;;;;;;12.50;11.17;;;;;;;24.47;58.20;101086.38;4940798;29;20438;-86
2023/07/10 07:54:39;;;;;;;12.00;10.77;;;;;;;24.59;56.49;101089.56;4932103;29;20427;-84
2023/07/10 07:57:11;;;;;;;15.57;11.17;;;;;;;24.70;56.50;101087.53;4934143;29;20414;-89
2023/07/10 07:59:41;;;;;;;14.10;11.33;;;;;;;24.92;55.31;101078.78;4920796;29;20445;-81
2023/07/10 08:02:10;;;;;;;13.10;11.17;;;;;;;25.01;54.63;101093.63;4912506;29;20453;-82
2023/07/10 08:04:41;;;;;;;21.17;12.27;;;;;;;25.27;52.76;101091.41;4903915;29;20443;-82
2023/07/10 08:07:10;;;;;;;12.33;11.20;;;;;;;25.92;52.31;101092.47;4925092;29;20415;-82
2023/07/10 08:09:41;;;;;;;11.17;10.00;;;;;;;26.41;49.73;101086.47;4926765;29;20484;-82
2023/07/10 08:12:11;;;;;;;15.50;11.30;;;;;;;26.75;49.06;101089.75;4927935;29;20491;-81
2023/07/10 08:14:41;;;;;;;12.80;10.90;;;;;;;26.92;45.11;101094.72;4922799;29;20787;-83
2023/07/10 08:17:10;;;;;;;13.47;12.37;;;;;;;26.96;45.03;101093.00;4926969;29;20441;-83
2023/07/10 08:19:39;;;;;;;11.53;10.43;;;;;;;26.65;45.07;101091.88;4920671;29;20435;-83
2023/07/10 08:22:08;;;;;;;11.00;10.07;;;;;;;26.62;45.45;101100.81;4925855;29;20436;-80
2023/07/10 08:24:37;;;;;;;12.20;11.10;;;;;;;26.70;46.12;101097.34;4921955;29;20424;-80
2023/07/10 08:27:09;;;;;;;13.70;10.80;;;;;;;26.73;46.06;101099.50;4927657;29;20513;-80
2023/07/10 08:29:38;;;;;;;13.27;11.07;;;;;;;26.89;46.43;101092.56;4922813;29;20469;-83
2023/07/10 08:32:08;;;;;;;12.90;10.33;;;;;;;27.43;44.73;101088.16;4925239;29;20816;-84
2023/07/10 08:34:37;;;;;;;12.27;10.20;;;;;;;27.74;44.73;101089.16;4921106;29;20484;-84
2023/07/10 08:37:08;;;;;;;11.90;10.77;;;;;;;27.95;44.43;101087.56;4907949;29;20416;-84
2023/07/10 08:39:37;;;;;;;10.67;9.70;;;;;;;27.96;43.70;101092.00;4924656;29;20461;-83
2023/07/10 08:42:19;;;;;;;17.03;12.10;;;;;;;28.35;44.12;101096.13;4939957;29;20465;-87
2023/07/10 08:44:53;;;;;;;11.53;10.30;;;;;;;28.57;42.65;101082.19;4933490;28;20432;-84
2023/07/10 08:47:25;;;;;;;11.50;10.47;;;;;;;28.66;42.65;101087.81;4918845;29;20521;-85
2023/07/10 08:50:01;;;;;;;10.80;9.90;;;;;;;28.69;42.03;101087.19;4926587;29;20898;-85
2023/07/10 08:52:37;;;;;;;11.97;10.90;;;;;;;28.76;43.17;101095.91;4927714;29;20418;-84
2023/07/10 08:55:11;;;;;;;11.13;10.17;;;;;;;28.80;41.94;101088.59;4923528;29;20453;-84
2023/07/10 08:57:49;;;;;;;11.77;10.63;;;;;;;28.78;41.79;101085.28;4921331;29;20432;-85
2023/07/10 09:00:18;;;;;;;14.30;10.40;;;;;;;28.79;41.39;101087.75;4923596;29;20631;-86
2023/07/10 09:02:53;;;;;;;13.60;10.43;;;;;;;28.84;42.18;101084.84;4920981;29;20460;-86
2023/07/10 09:05:26;;;;;;;12.70;11.60;;;;;;;29.27;41.54;101081.41;4924085;29;20523;-84
2023/07/10 09:07:59;;;;;;;12.20;11.20;;;;;;;29.60;40.40;101074.31;4923847;29;20433;-83
2023/07/10 09:10:42;;;;;;;11.00;10.13;;;;;;;29.63;40.56;101076.44;4923176;29;20472;-83
2023/07/10 09:13:18;;;;;;;11.47;9.60;;;;;;;29.82;39.51;101078.94;4927022;29;20441;-84
2023/07/10 09:15:53;;;;;;;11.93;10.83;;;;;;;30.03;39.27;101076.34;4927620;29;20476;-85
2023/07/10 09:18:32;;;;;;;13.03;10.20;;;;;;;29.79;39.13;101071.22;4920961;29;20949;-84
2023/07/10 09:21:22;;;;;;;10.30;9.37;;;;;;;29.70;39.23;101070.38;4920425;29;20528;-85
2023/07/10 09:28:13;;;;;;;12.30;11.20;;;;;;;30.27;39.37;101071.06;4920048;29;20453;-83
2023/07/10 09:30:58;;;;;;;11.83;10.77;;;;;;;30.26;38.39;101068.63;4910486;29;20447;-83
2023/07/10 09:33:42;;;;;;;10.87;9.87;;;;;;;30.31;37.36;101071.22;4905477;29;20465;-83
2023/07/10 09:36:17;;;;;;;12.47;11.37;;;;;;;30.18;38.41;101073.06;4906129;29;20477;-85
2023/07/10 09:38:48;;;;;;;11.23;10.23;;;;;;;30.40;38.38;101075.66;4923868;29;20441;-84
2023/07/10 09:41:25;;;;;;;11.70;9.77;;;;;;;30.43;38.22;101077.78;4930710;29;20438;-84
2023/07/10 09:44:01;;;;;;;11.20;10.20;;;;;;;30.71;37.50;101078.25;4928360;29;20562;-84
2023/07/10 09:46:33;;;;;;;12.30;11.10;;;;;;;30.86;37.90;101083.28;4925019;29;20436;-83
2023/07/10 09:49:15;;;;;;;12.37;11.17;;;;;;;30.79;37.60;101080.19;4917096;29;20507;-85
2023/07/10 09:51:59;;;;;;;14.40;11.30;;;;;;;30.56;38.26;101071.22;4917792;29;20461;-84
2023/07/10 09:54:41;;;;;;;11.70;10.73;;;;;;;30.89;38.58;101070.63;4923219;29;20445;-83
2023/07/10 09:57:14;;;;;;;13.23;12.10;;;;;;;30.86;38.70;101072.13;4923417;29;20449;-83
2023/07/10 09:59:53;;;;;;;12.47;11.47;;;;;;;31.26;37.90;101069.84;4927014;28;20492;-85
2023/07/10 10:02:26;;;;;;;11.33;10.23;;;;;;;31.04;38.17;101067.31;4936139;28;20437;-84
2023/07/10 10:05:09;;;;;;;11.37;10.43;;;;;;;31.03;37.84;101065.69;4936586;28;20469;-85
2023/07/10 10:07:42;;;;;;;12.77;10.83;;;;;;;31.13;38.30;101065.28;4935468;28;20425;-84
2023/07/10 10:10:24;;;;;;;13.10;11.87;;;;;;;31.12;38.03;101063.66;4927224;28;20446;-83
2023/07/10 10:13:03;;;;;;;11.93;10.93;;;;;;;31.17;38.79;101055.09;4920590;28;20441;-84
2023/07/10 10:15:50;;;;;;;11.93;10.87;;;;;;;31.48;39.16;101061.16;4930860;29;20513;-84
2023/07/10 10:18:35;;;;;;;11.73;10.63;;;;;;;31.67;37.33;101069.13;4924964;29;20404;-83
2023/07/10 10:21:11;;;;;;;11.63;10.53;;;;;;;31.59;37.58;101060.78;4924669;29;21044;-82
2023/07/10 10:23:43;;;;;;;10.67;9.87;;;;;;;31.47;37.70;101059.50;4924859;29;20942;-84
2023/07/10 10:26:28;;;;;;;12.97;11.97;;;;;;;31.26;37.25;101063.44;4926760;29;20488;-82
2023/07/10 10:29:17;;;;;;;11.10;10.10;;;;;;;31.55;37.20;101062.59;4925145;29;20437;-83
2023/07/10 10:32:02;;;;;;;11.00;10.00;;;;;;;31.63;37.27;101053.34;4925560;29;20442;-85
2023/07/10 10:34:41;;;;;;;12.60;11.50;;;;;;;31.11;37.18;101058.41;4927821;29;20457;-83
2023/07/10 10:37:29;;;;;;;11.53;10.43;;;;;;;31.36;37.23;101040.69;4924159;29;20449;-83
2023/07/10 10:40:05;;;;;;;12.43;10.77;;;;;;;31.85;36.95;101036.25;4927648;29;20473;-83
2023/07/10 10:42:43;;;;;;;12.00;10.83;;;;;;;32.16;36.04;101038.63;4925389;29;20903;-83
2023/07/10 10:45:23;;;;;;;12.03;10.60;;;;;;;31.94;36.87;101028.59;4914007;29;20465;-83
2023/07/10 10:48:09;;;;;;;10.50;9.50;;;;;;;31.73;36.36;101034.19;4924738;29;20447;-84
2023/07/10 10:51:00;;;;;;;12.13;9.63;;;;;;;31.59;36.52;101036.44;4923042;29;20426;-82
2023/07/10 10:53:41;;;;;;;10.33;9.50;;;;;;;31.68;36.96;101041.97;4925075;29;20441;-82
2023/07/10 10:56:19;;;;;;;10.60;9.70;;;;;;;32.07;36.81;101033.06;4926997;29;20449;-83
2023/07/10 10:59:28;;;;;;;10.23;9.40;;;;;;;32.51;36.31;101034.31;4932902;29;20441;-83
2023/07/10 11:02:15;;;;;;;11.07;10.17;;;;;;;32.62;36.48;101026.28;4925007;29;20497;-83
2023/07/10 11:04:51;;;;;;;11.07;10.03;;;;;;;32.96;35.77;101031.50;4932639;29;20453;-82
2023/07/10 11:07:23;;;;;;;10.37;9.33;;;;;;;32.75;35.94;101020.38;4910262;29;20454;-82
2023/07/10 11:09:56;;;;;;;9.37;8.47;;;;;;;32.58;36.17;101025.34;4912678;29;20460;-85
2023/07/10 11:12:29;;;;;;;11.03;8.53;;;;;;;32.61;35.17;101030.25;4916954;29;20522;-85
2023/07/10 11:15:02;;;;;;;10.40;9.53;;;;;;;32.12;36.32;101024.50;4916192;29;20466;-84
2023/07/10 11:17:32;;;;;;;11.30;9.70;;;;;;;32.24;36.21;101032.13;4924818;29;20471;-84
2023/07/10 11:20:06;;;;;;;10.47;9.50;;;;;;;32.49;36.81;101030.19;4921183;29;20448;-82
2023/07/10 11:22:51;;;;;;;11.00;10.10;;;;;;;32.63;35.59;101022.31;4918516;29;20430;-84
2023/07/10 11:25:32;;;;;;;10.83;10.03;;;;;;;32.28;36.83;101027.47;4924683;29;20527;-84
2023/07/10 11:28:21;;;;;;;11.20;10.10;;;;;;;32.27;37.64;101026.66;4922886;29;20537;-83
2023/07/10 11:31:13;;;;;;;11.10;10.20;;;;;;;31.69;38.70;101035.22;4920942;29;20507;-86
2023/07/10 11:33:44;;;;;;;17.83;11.73;;;;;;;31.79;38.91;101032.00;4922316;29;20425;-83
2023/07/10 11:36:18;;;;;;;14.83;11.43;;;;;;;31.58;39.29;101032.00;4925476;29;20517;-83
2023/07/10 11:38:58;;;;;;;11.87;10.77;;;;;;;31.78;39.48;101031.19;4915642;29;20473;-85
2023/07/10 11:41:31;;;;;;;14.97;13.67;;;;;;;31.64;40.72;101041.00;4913901;29;20532;-84
2023/07/10 11:44:39;;;;;;;13.23;12.23;;;;;;;30.88;42.40;101041.06;4917792;29;20537;-83
2023/07/10 11:47:28;;;;;;;15.77;14.47;;;;;;;31.10;42.75;101043.59;4924610;29;20444;-84